EDDNLOWI

Guest
Details From EDDN - Nurnberg
To LOWI - Innsbruck Kranebitten
Flight Number -
Tags Routegen
Created
Modified
Stats Distance 135 nm / 250 km
Max Altitude 0 ft / 0 m
Waypoints 2
Social Downloads 3
Likes 0
Share VATSIM

Download

Looking for another format? Having issues loading an existing format? Contact us
Advertisement - Login to hide

Notes

None

Route

EDDN LOWI

ID Type Via Altitude Latitude Longitude Leg Dist Tot Dist Heading (true) Name
O EDDN APT - 0 ft / 0 m 49.50055˚ 11.05918˚ - 0 nm - -
O LOWI APT - 0 ft / 0 m 47.25883˚ 11.33091˚ 135 nm 135 nm 175° / 175° -

Altitude Profile

Advertisement - Login to hide

EDDN

Details ICAO EDDN (NUE)
Name Nurnberg
Region Germany - Civil
Timezone Europe/Berlin (UTC+1.0)
Stats Elevation 1,045 ft / 319 m (AMSL)
Location 49.498744° 11.077580°
Runways 1
Magnetic Variation 3.019° E

METAR

EDDN 151750Z 21007KT 190V250 9999 FEW015 BKN050 02/00 Q0999 R28/29//95 NOSIG

Decode

TAF

TAF TAF EDDN 151700Z 1518/1618 25012KT 9999 BKN030 BECMG 1518/1520 22003KT TEMPO 1523/1618 3000 -SHSN BKN012TCU PROB30 TEMPO 1605/1609 1000 SHSN VV004 BKN010CB BECMG 1611/1613 30007KT PROB30 TEMPO 1614/1617 1000 SHSN VV004 BKN010CB

Decode

Departure Runways

ID Width Length Bearing (true) Bearing (mag) Surface Threshold Offset Overrun Length
10 148 ft / 45 m 8,819 ft / 2,688 m 98.60° 95.58° Asphalt 0 ft / 0 m 0 ft / 0 m
28 148 ft / 45 m 8,819 ft / 2,688 m 278.63° 275.61° Asphalt 0 ft / 0 m 0 ft / 0 m

LOWI

Details ICAO LOWI (INN)
Name Innsbruck Kranebitten
Region Austria
Timezone Europe/Vienna (UTC+1.0)
Stats Elevation 1,906 ft / 581 m (AMSL)
Location 47.260226° 11.343967°
Runways 1
Magnetic Variation 3.019° E

METAR

LOWI 151750Z 27004KT 9999 FEW006 SCT014 BKN020 01/01 Q1001 R08/29//95 TEMPO BKN012

Decode

TAF

TAF LOWI 151715Z 1518/1618 VRB02KT 7000 FEW004 SCT012 BKN018 TX02/1613Z TNM02/1607Z TEMPO 1518/1524 SCT004 BKN009 TEMPO 1524/1609 FEW001 BKN006 PROB30 1524/1609 0800 FZFG VV002 BECMG 1609/1611 9999 FEW010 BKN100 BECMG 1615/1617 8000 -SN SCT030 BKN060 TEMPO 1616/1618 1200 SN VV008

Decode

Destination Runways

ID Width Length Bearing (true) Bearing (mag) Surface Threshold Offset Overrun Length
08 148 ft / 45 m 6,545 ft / 1,995 m 81.02° 78.00° Asphalt 338 ft / 103 m 0 ft / 0 m
26 148 ft / 45 m 6,545 ft / 1,995 m 261.04° 258.02° Asphalt 0 ft / 0 m 0 ft / 0 m

Approach Navaids

Runway Type Ident Frequency Range Bearing (true) Bearing (mag) Slope Elevation
26 Localiser OEV 111.10 MHz 27 nm / 50 km 256.00° 252.98° - 1,906 ft / 581 m (AMSL)
26 Localiser OEJ 109.70 MHz 30 nm / 56 km 69.00° 65.98° - 1,906 ft / 581 m (AMSL)
26 Glidescope OEV 111.10 MHz 18 nm / 33 km 256.00° 252.98° 3.80° 1,911 ft / 582 m (AMSL)
26 DME OEJ 109.70 MHz 30 nm / 56 km - - - 1,906 ft / 581 m (AMSL)
26 DME OEV 111.10 MHz 27 nm / 50 km - - - 1,911 ft / 582 m (AMSL)

Popular Alternatives